sensor_id;sensor_type;location;lat;lon;timestamp;P1;durP1;ratioP1;P2;durP2;ratioP2
21675;SDS011;10999;51.332;9.458;2022-10-31T00:00:54;13.45;;;4.93;;
21675;SDS011;10999;51.332;9.458;2022-10-31T00:03:21;10.68;;;4.57;;
21675;SDS011;10999;51.332;9.458;2022-10-31T00:05:48;10.90;;;4.05;;
21675;SDS011;10999;51.332;9.458;2022-10-31T00:08:16;9.85;;;4.28;;
21675;SDS011;10999;51.332;9.458;2022-10-31T00:10:44;12.02;;;4.50;;
21675;SDS011;10999;51.332;9.458;2022-10-31T00:13:12;9.32;;;4.47;;
21675;SDS011;10999;51.332;9.458;2022-10-31T00:15:40;13.40;;;4.78;;
21675;SDS011;10999;51.332;9.458;2022-10-31T00:18:07;11.57;;;5.15;;
21675;SDS011;10999;51.332;9.458;2022-10-31T00:20:34;8.55;;;4.05;;
21675;SDS011;10999;51.332;9.458;2022-10-31T00:23:02;12.05;;;4.65;;
21675;SDS011;10999;51.332;9.458;2022-10-31T00:25:32;10.75;;;4.57;;
21675;SDS011;10999;51.332;9.458;2022-10-31T00:28:02;10.63;;;5.13;;
21675;SDS011;10999;51.332;9.458;2022-10-31T00:30:30;11.50;;;4.63;;
21675;SDS011;10999;51.332;9.458;2022-10-31T00:32:57;12.85;;;5.15;;
21675;SDS011;10999;51.332;9.458;2022-10-31T00:35:25;10.82;;;4.63;;
21675;SDS011;10999;51.332;9.458;2022-10-31T00:37:51;13.25;;;4.97;;
21675;SDS011;10999;51.332;9.458;2022-10-31T00:40:18;12.75;;;4.60;;
21675;SDS011;10999;51.332;9.458;2022-10-31T00:42:45;10.75;;;4.35;;
21675;SDS011;10999;51.332;9.458;2022-10-31T00:45:11;11.23;;;5.00;;
21675;SDS011;10999;51.332;9.458;2022-10-31T00:47:38;11.95;;;4.40;;
21675;SDS011;10999;51.332;9.458;2022-10-31T00:50:05;10.80;;;4.63;;
21675;SDS011;10999;51.332;9.458;2022-10-31T00:52:32;10.50;;;4.35;;
21675;SDS011;10999;51.332;9.458;2022-10-31T00:54:58;8.88;;;4.80;;
21675;SDS011;10999;51.332;9.458;2022-10-31T00:57:26;12.73;;;4.95;;
21675;SDS011;10999;51.332;9.458;2022-10-31T00:59:53;9.68;;;4.10;;
21675;SDS011;10999;51.332;9.458;2022-10-31T01:02:19;10.50;;;4.68;;
21675;SDS011;10999;51.332;9.458;2022-10-31T01:04:46;9.75;;;4.50;;
21675;SDS011;10999;51.332;9.458;2022-10-31T01:07:13;12.45;;;5.10;;
21675;SDS011;10999;51.332;9.458;2022-10-31T01:09:40;10.45;;;4.75;;
21675;SDS011;10999;51.332;9.458;2022-10-31T01:12:07;9.85;;;4.50;;
21675;SDS011;10999;51.332;9.458;2022-10-31T01:14:34;8.63;;;3.55;;
21675;SDS011;10999;51.332;9.458;2022-10-31T01:17:01;9.00;;;4.63;;
21675;SDS011;10999;51.332;9.458;2022-10-31T01:19:28;10.75;;;4.03;;
21675;SDS011;10999;51.332;9.458;2022-10-31T01:21:55;17.30;;;6.35;;
21675;SDS011;10999;51.332;9.458;2022-10-31T01:24:22;10.35;;;4.35;;
21675;SDS011;10999;51.332;9.458;2022-10-31T01:26:48;11.02;;;4.85;;
21675;SDS011;10999;51.332;9.458;2022-10-31T01:29:15;11.88;;;4.03;;
21675;SDS011;10999;51.332;9.458;2022-10-31T01:31:41;9.30;;;3.75;;
21675;SDS011;10999;51.332;9.458;2022-10-31T01:34:10;11.98;;;4.20;;
21675;SDS011;10999;51.332;9.458;2022-10-31T01:36:40;10.65;;;4.28;;
21675;SDS011;10999;51.332;9.458;2022-10-31T01:39:09;11.02;;;4.20;;
21675;SDS011;10999;51.332;9.458;2022-10-31T01:41:42;10.35;;;4.05;;
21675;SDS011;10999;51.332;9.458;2022-10-31T01:49:19;12.00;;;4.85;;
21675;SDS011;10999;51.332;9.458;2022-10-31T01:51:55;10.88;;;4.53;;
21675;SDS011;10999;51.332;9.458;2022-10-31T01:54:29;10.35;;;4.78;;
21675;SDS011;10999;51.332;9.458;2022-10-31T01:57:01;8.77;;;4.35;;
21675;SDS011;10999;51.332;9.458;2022-10-31T01:59:30;9.82;;;4.30;;
21675;SDS011;10999;51.332;9.458;2022-10-31T02:02:01;11.90;;;4.65;;
21675;SDS011;10999;51.332;9.458;2022-10-31T02:04:28;9.68;;;4.03;;
21675;SDS011;10999;51.332;9.458;2022-10-31T02:06:56;10.60;;;4.05;;
21675;SDS011;10999;51.332;9.458;2022-10-31T02:09:28;8.70;;;4.20;;
21675;SDS011;10999;51.332;9.458;2022-10-31T02:11:58;9.65;;;4.03;;
21675;SDS011;10999;51.332;9.458;2022-10-31T02:14:26;8.65;;;3.40;;
21675;SDS011;10999;51.332;9.458;2022-10-31T02:16:55;10.73;;;4.00;;
21675;SDS011;10999;51.332;9.458;2022-10-31T02:19:44;10.23;;;4.93;;
21675;SDS011;10999;51.332;9.458;2022-10-31T02:28:30;8.85;;;3.35;;
21675;SDS011;10999;51.332;9.458;2022-10-31T02:34:11;9.73;;;4.30;;
21675;SDS011;10999;51.332;9.458;2022-10-31T02:36:58;8.93;;;3.72;;
21675;SDS011;10999;51.332;9.458;2022-10-31T02:39:33;9.73;;;4.15;;
21675;SDS011;10999;51.332;9.458;2022-10-31T02:42:13;8.27;;;3.58;;
21675;SDS011;10999;51.332;9.458;2022-10-31T02:47:37;11.73;;;4.20;;
21675;SDS011;10999;51.332;9.458;2022-10-31T02:50:06;10.10;;;3.80;;
21675;SDS011;10999;51.332;9.458;2022-10-31T02:52:51;8.15;;;3.30;;
21675;SDS011;10999;51.332;9.458;2022-10-31T02:57:51;10.18;;;4.20;;
21675;SDS011;10999;51.332;9.458;2022-10-31T03:00:22;9.85;;;3.55;;
21675;SDS011;10999;51.332;9.458;2022-10-31T03:02:57;12.07;;;3.85;;
21675;SDS011;10999;51.332;9.458;2022-10-31T03:11:05;9.38;;;4.03;;
21675;SDS011;10999;51.332;9.458;2022-10-31T03:19:15;10.55;;;4.70;;
21675;SDS011;10999;51.332;9.458;2022-10-31T03:24:13;10.60;;;4.18;;
21675;SDS011;10999;51.332;9.458;2022-10-31T03:26:42;10.32;;;4.57;;
21675;SDS011;10999;51.332;9.458;2022-10-31T03:29:16;10.43;;;4.82;;
21675;SDS011;10999;51.332;9.458;2022-10-31T03:32:00;10.40;;;4.22;;
21675;SDS011;10999;51.332;9.458;2022-10-31T03:34:31;7.53;;;3.35;;
21675;SDS011;10999;51.332;9.458;2022-10-31T03:37:00;12.10;;;4.55;;
21675;SDS011;10999;51.332;9.458;2022-10-31T03:39:30;11.10;;;4.57;;
21675;SDS011;10999;51.332;9.458;2022-10-31T03:42:05;9.35;;;4.13;;
21675;SDS011;10999;51.332;9.458;2022-10-31T03:44:41;10.57;;;4.18;;
21675;SDS011;10999;51.332;9.458;2022-10-31T03:47:11;10.60;;;4.03;;
21675;SDS011;10999;51.332;9.458;2022-10-31T03:49:39;9.60;;;4.18;;
21675;SDS011;10999;51.332;9.458;2022-10-31T03:58:18;8.05;;;3.90;;
21675;SDS011;10999;51.332;9.458;2022-10-31T04:00:39;9.50;;;3.85;;
21675;SDS011;10999;51.332;9.458;2022-10-31T04:03:11;9.15;;;4.97;;
21675;SDS011;10999;51.332;9.458;2022-10-31T04:05:43;9.80;;;3.85;;
21675;SDS011;10999;51.332;9.458;2022-10-31T04:08:14;10.93;;;4.45;;
21675;SDS011;10999;51.332;9.458;2022-10-31T04:10:43;8.52;;;3.47;;
21675;SDS011;10999;51.332;9.458;2022-10-31T04:13:13;13.38;;;4.50;;
21675;SDS011;10999;51.332;9.458;2022-10-31T04:15:45;11.40;;;4.75;;
21675;SDS011;10999;51.332;9.458;2022-10-31T04:18:13;9.52;;;4.20;;
21675;SDS011;10999;51.332;9.458;2022-10-31T04:20:41;10.57;;;4.15;;
21675;SDS011;10999;51.332;9.458;2022-10-31T04:23:17;10.00;;;4.97;;
21675;SDS011;10999;51.332;9.458;2022-10-31T04:25:45;9.95;;;4.28;;
21675;SDS011;10999;51.332;9.458;2022-10-31T04:28:12;10.30;;;3.92;;
21675;SDS011;10999;51.332;9.458;2022-10-31T04:30:39;11.57;;;4.63;;
21675;SDS011;10999;51.332;9.458;2022-10-31T04:33:05;11.40;;;4.57;;
21675;SDS011;10999;51.332;9.458;2022-10-31T04:35:32;10.18;;;4.50;;
21675;SDS011;10999;51.332;9.458;2022-10-31T04:37:59;9.82;;;4.60;;
21675;SDS011;10999;51.332;9.458;2022-10-31T04:40:25;11.38;;;4.28;;
21675;SDS011;10999;51.332;9.458;2022-10-31T04:42:52;11.35;;;4.82;;
21675;SDS011;10999;51.332;9.458;2022-10-31T04:45:19;12.63;;;4.60;;
21675;SDS011;10999;51.332;9.458;2022-10-31T04:47:46;12.93;;;4.47;;
21675;SDS011;10999;51.332;9.458;2022-10-31T04:50:13;10.35;;;4.53;;
21675;SDS011;10999;51.332;9.458;2022-10-31T04:52:43;8.45;;;4.28;;
21675;SDS011;10999;51.332;9.458;2022-10-31T04:55:10;9.80;;;4.35;;
21675;SDS011;10999;51.332;9.458;2022-10-31T04:57:44;11.20;;;3.85;;
21675;SDS011;10999;51.332;9.458;2022-10-31T05:00:13;10.10;;;4.45;;
21675;SDS011;10999;51.332;9.458;2022-10-31T05:02:42;14.93;;;5.10;;
21675;SDS011;10999;51.332;9.458;2022-10-31T05:05:18;11.40;;;5.00;;
21675;SDS011;10999;51.332;9.458;2022-10-31T05:07:46;8.90;;;3.80;;
21675;SDS011;10999;51.332;9.458;2022-10-31T05:10:15;9.10;;;3.78;;
21675;SDS011;10999;51.332;9.458;2022-10-31T05:12:51;8.45;;;3.58;;
21675;SDS011;10999;51.332;9.458;2022-10-31T05:15:23;7.70;;;3.20;;
21675;SDS011;10999;51.332;9.458;2022-10-31T05:17:51;10.15;;;3.88;;
21675;SDS011;10999;51.332;9.458;2022-10-31T05:20:19;12.20;;;4.35;;
21675;SDS011;10999;51.332;9.458;2022-10-31T05:22:49;8.95;;;3.63;;
21675;SDS011;10999;51.332;9.458;2022-10-31T05:25:17;12.95;;;4.38;;
21675;SDS011;10999;51.332;9.458;2022-10-31T05:27:46;9.77;;;4.53;;
21675;SDS011;10999;51.332;9.458;2022-10-31T05:30:16;10.93;;;4.30;;
21675;SDS011;10999;51.332;9.458;2022-10-31T05:32:45;9.50;;;4.20;;
21675;SDS011;10999;51.332;9.458;2022-10-31T05:35:14;8.75;;;3.90;;
21675;SDS011;10999;51.332;9.458;2022-10-31T05:37:42;9.10;;;3.95;;
21675;SDS011;10999;51.332;9.458;2022-10-31T05:40:09;10.15;;;4.25;;
21675;SDS011;10999;51.332;9.458;2022-10-31T05:42:38;13.57;;;4.78;;
21675;SDS011;10999;51.332;9.458;2022-10-31T05:45:09;10.82;;;4.07;;
21675;SDS011;10999;51.332;9.458;2022-10-31T05:47:38;9.57;;;3.88;;
21675;SDS011;10999;51.332;9.458;2022-10-31T05:50:05;9.90;;;4.22;;
21675;SDS011;10999;51.332;9.458;2022-10-31T05:52:32;12.43;;;4.22;;
21675;SDS011;10999;51.332;9.458;2022-10-31T05:54:59;8.73;;;3.70;;
21675;SDS011;10999;51.332;9.458;2022-10-31T05:57:26;8.98;;;3.70;;
21675;SDS011;10999;51.332;9.458;2022-10-31T05:59:53;9.07;;;3.92;;
21675;SDS011;10999;51.332;9.458;2022-10-31T06:02:20;9.55;;;5.00;;
21675;SDS011;10999;51.332;9.458;2022-10-31T06:04:47;9.13;;;4.30;;
21675;SDS011;10999;51.332;9.458;2022-10-31T06:07:14;8.95;;;4.05;;
21675;SDS011;10999;51.332;9.458;2022-10-31T06:09:40;7.57;;;3.47;;
21675;SDS011;10999;51.332;9.458;2022-10-31T06:12:07;9.07;;;4.22;;
21675;SDS011;10999;51.332;9.458;2022-10-31T06:14:34;11.15;;;4.75;;
21675;SDS011;10999;51.332;9.458;2022-10-31T06:17:00;9.75;;;4.53;;
21675;SDS011;10999;51.332;9.458;2022-10-31T06:19:27;11.10;;;5.07;;
21675;SDS011;10999;51.332;9.458;2022-10-31T06:21:53;10.23;;;5.07;;
21675;SDS011;10999;51.332;9.458;2022-10-31T06:24:20;11.25;;;4.80;;
21675;SDS011;10999;51.332;9.458;2022-10-31T06:26:47;10.45;;;4.78;;
21675;SDS011;10999;51.332;9.458;2022-10-31T06:29:13;12.73;;;4.80;;
21675;SDS011;10999;51.332;9.458;2022-10-31T06:31:40;9.10;;;4.28;;
21675;SDS011;10999;51.332;9.458;2022-10-31T06:34:07;9.15;;;4.40;;
21675;SDS011;10999;51.332;9.458;2022-10-31T06:36:33;8.13;;;3.40;;
21675;SDS011;10999;51.332;9.458;2022-10-31T06:39:00;11.43;;;4.63;;
21675;SDS011;10999;51.332;9.458;2022-10-31T06:41:27;10.27;;;3.95;;
21675;SDS011;10999;51.332;9.458;2022-10-31T06:43:53;9.27;;;4.43;;
21675;SDS011;10999;51.332;9.458;2022-10-31T06:46:20;8.75;;;4.20;;
21675;SDS011;10999;51.332;9.458;2022-10-31T06:48:46;10.95;;;4.50;;
21675;SDS011;10999;51.332;9.458;2022-10-31T06:51:13;9.63;;;4.50;;
21675;SDS011;10999;51.332;9.458;2022-10-31T06:53:40;13.60;;;5.95;;
21675;SDS011;10999;51.332;9.458;2022-10-31T06:56:06;11.88;;;5.55;;
21675;SDS011;10999;51.332;9.458;2022-10-31T06:58:33;13.18;;;5.55;;
21675;SDS011;10999;51.332;9.458;2022-10-31T07:01:00;14.52;;;6.32;;
21675;SDS011;10999;51.332;9.458;2022-10-31T07:03:27;11.63;;;5.15;;
21675;SDS011;10999;51.332;9.458;2022-10-31T07:05:59;11.68;;;5.72;;
21675;SDS011;10999;51.332;9.458;2022-10-31T07:08:26;11.88;;;5.28;;
21675;SDS011;10999;51.332;9.458;2022-10-31T07:10:53;11.35;;;5.60;;
21675;SDS011;10999;51.332;9.458;2022-10-31T07:13:21;13.63;;;5.80;;
21675;SDS011;10999;51.332;9.458;2022-10-31T07:15:55;11.43;;;6.15;;
21675;SDS011;10999;51.332;9.458;2022-10-31T07:18:25;11.50;;;5.70;;
21675;SDS011;10999;51.332;9.458;2022-10-31T07:20:52;14.07;;;5.30;;
21675;SDS011;10999;51.332;9.458;2022-10-31T07:23:19;10.52;;;4.60;;
21675;SDS011;10999;51.332;9.458;2022-10-31T07:25:46;12.15;;;5.72;;
21675;SDS011;10999;51.332;9.458;2022-10-31T07:28:13;11.88;;;6.22;;
21675;SDS011;10999;51.332;9.458;2022-10-31T07:30:39;13.25;;;5.53;;
21675;SDS011;10999;51.332;9.458;2022-10-31T07:33:06;12.98;;;4.97;;
21675;SDS011;10999;51.332;9.458;2022-10-31T07:35:33;14.05;;;5.35;;
21675;SDS011;10999;51.332;9.458;2022-10-31T07:38:07;13.52;;;5.57;;
21675;SDS011;10999;51.332;9.458;2022-10-31T07:40:36;10.32;;;4.88;;
21675;SDS011;10999;51.332;9.458;2022-10-31T07:43:03;11.50;;;5.32;;
21675;SDS011;10999;51.332;9.458;2022-10-31T07:45:33;16.23;;;6.72;;
21675;SDS011;10999;51.332;9.458;2022-10-31T07:48:00;18.25;;;7.68;;
21675;SDS011;10999;51.332;9.458;2022-10-31T07:50:29;13.60;;;6.13;;
21675;SDS011;10999;51.332;9.458;2022-10-31T07:53:06;14.25;;;7.03;;
21675;SDS011;10999;51.332;9.458;2022-10-31T07:55:35;14.95;;;7.65;;
21675;SDS011;10999;51.332;9.458;2022-10-31T07:58:03;14.75;;;7.00;;
21675;SDS011;10999;51.332;9.458;2022-10-31T08:00:34;15.35;;;6.57;;
21675;SDS011;10999;51.332;9.458;2022-10-31T08:03:04;14.90;;;6.30;;
21675;SDS011;10999;51.332;9.458;2022-10-31T08:05:32;11.20;;;5.65;;
21675;SDS011;10999;51.332;9.458;2022-10-31T08:08:00;12.27;;;6.13;;
21675;SDS011;10999;51.332;9.458;2022-10-31T08:10:27;13.82;;;5.95;;
21675;SDS011;10999;51.332;9.458;2022-10-31T08:12:55;13.38;;;6.88;;
21675;SDS011;10999;51.332;9.458;2022-10-31T08:15:22;15.38;;;6.75;;
21675;SDS011;10999;51.332;9.458;2022-10-31T08:17:49;12.43;;;6.63;;
21675;SDS011;10999;51.332;9.458;2022-10-31T08:20:16;16.23;;;6.72;;
21675;SDS011;10999;51.332;9.458;2022-10-31T08:22:42;15.15;;;6.72;;
21675;SDS011;10999;51.332;9.458;2022-10-31T08:25:09;14.98;;;5.85;;
21675;SDS011;10999;51.332;9.458;2022-10-31T08:27:35;12.80;;;5.53;;
21675;SDS011;10999;51.332;9.458;2022-10-31T08:30:02;14.57;;;5.55;;
21675;SDS011;10999;51.332;9.458;2022-10-31T08:32:29;13.02;;;5.72;;
21675;SDS011;10999;51.332;9.458;2022-10-31T08:34:56;17.20;;;6.45;;
21675;SDS011;10999;51.332;9.458;2022-10-31T08:37:22;15.32;;;7.25;;
21675;SDS011;10999;51.332;9.458;2022-10-31T08:39:49;15.43;;;6.35;;
21675;SDS011;10999;51.332;9.458;2022-10-31T08:42:15;14.57;;;6.82;;
21675;SDS011;10999;51.332;9.458;2022-10-31T08:44:42;13.25;;;5.90;;
21675;SDS011;10999;51.332;9.458;2022-10-31T08:47:09;12.63;;;6.05;;
21675;SDS011;10999;51.332;9.458;2022-10-31T08:49:35;18.55;;;6.57;;
21675;SDS011;10999;51.332;9.458;2022-10-31T08:52:02;14.57;;;6.63;;
21675;SDS011;10999;51.332;9.458;2022-10-31T08:54:28;12.70;;;6.30;;
21675;SDS011;10999;51.332;9.458;2022-10-31T08:56:55;17.98;;;6.63;;
21675;SDS011;10999;51.332;9.458;2022-10-31T08:59:22;15.55;;;7.25;;
21675;SDS011;10999;51.332;9.458;2022-10-31T09:01:48;15.93;;;7.43;;
21675;SDS011;10999;51.332;9.458;2022-10-31T09:04:15;20.98;;;8.30;;
21675;SDS011;10999;51.332;9.458;2022-10-31T09:06:42;18.35;;;8.15;;
21675;SDS011;10999;51.332;9.458;2022-10-31T09:09:29;18.73;;;7.70;;
21675;SDS011;10999;51.332;9.458;2022-10-31T09:11:55;15.18;;;7.40;;
21675;SDS011;10999;51.332;9.458;2022-10-31T09:14:22;14.07;;;7.82;;
21675;SDS011;10999;51.332;9.458;2022-10-31T09:16:48;15.88;;;7.38;;
21675;SDS011;10999;51.332;9.458;2022-10-31T09:19:16;15.13;;;7.65;;
21675;SDS011;10999;51.332;9.458;2022-10-31T09:21:43;17.40;;;7.63;;
21675;SDS011;10999;51.332;9.458;2022-10-31T09:24:10;20.35;;;8.50;;
21675;SDS011;10999;51.332;9.458;2022-10-31T09:26:36;15.30;;;7.15;;
21675;SDS011;10999;51.332;9.458;2022-10-31T09:29:03;18.02;;;7.57;;
21675;SDS011;10999;51.332;9.458;2022-10-31T09:31:30;16.67;;;6.18;;
21675;SDS011;10999;51.332;9.458;2022-10-31T09:33:57;14.50;;;6.35;;
21675;SDS011;10999;51.332;9.458;2022-10-31T09:36:23;14.50;;;6.35;;
21675;SDS011;10999;51.332;9.458;2022-10-31T09:38:51;15.32;;;6.30;;
21675;SDS011;10999;51.332;9.458;2022-10-31T09:44:12;13.68;;;6.45;;
21675;SDS011;10999;51.332;9.458;2022-10-31T09:50:02;14.95;;;7.30;;
21675;SDS011;10999;51.332;9.458;2022-10-31T09:52:34;13.35;;;6.72;;
21675;SDS011;10999;51.332;9.458;2022-10-31T09:57:45;17.30;;;7.07;;
21675;SDS011;10999;51.332;9.458;2022-10-31T10:00:17;16.08;;;7.35;;
21675;SDS011;10999;51.332;9.458;2022-10-31T10:06:01;14.38;;;6.43;;
21675;SDS011;10999;51.332;9.458;2022-10-31T10:08:33;15.70;;;6.82;;
21675;SDS011;10999;51.332;9.458;2022-10-31T10:14:04;15.30;;;7.80;;
21675;SDS011;10999;51.332;9.458;2022-10-31T10:22:16;20.75;;;8.70;;
21675;SDS011;10999;51.332;9.458;2022-10-31T10:27:41;22.40;;;9.13;;
21675;SDS011;10999;51.332;9.458;2022-10-31T10:30:13;22.25;;;9.50;;
21675;SDS011;10999;51.332;9.458;2022-10-31T10:32:50;26.83;;;10.48;;
21675;SDS011;10999;51.332;9.458;2022-10-31T10:35:20;20.05;;;8.40;;
21675;SDS011;10999;51.332;9.458;2022-10-31T10:37:52;16.73;;;6.55;;
21675;SDS011;10999;51.332;9.458;2022-10-31T10:40:24;18.65;;;8.13;;
21675;SDS011;10999;51.332;9.458;2022-10-31T10:42:59;19.75;;;8.50;;
21675;SDS011;10999;51.332;9.458;2022-10-31T10:51:55;20.58;;;9.93;;
21675;SDS011;10999;51.332;9.458;2022-10-31T10:55:08;17.73;;;7.90;;
21675;SDS011;10999;51.332;9.458;2022-10-31T10:57:43;18.90;;;8.55;;
21675;SDS011;10999;51.332;9.458;2022-10-31T11:00:27;23.40;;;8.55;;
21675;SDS011;10999;51.332;9.458;2022-10-31T11:03:04;19.05;;;8.13;;
21675;SDS011;10999;51.332;9.458;2022-10-31T11:05:42;15.20;;;7.13;;
21675;SDS011;10999;51.332;9.458;2022-10-31T11:08:24;18.02;;;8.00;;
21675;SDS011;10999;51.332;9.458;2022-10-31T11:11:01;19.67;;;7.35;;
21675;SDS011;10999;51.332;9.458;2022-10-31T11:13:28;16.90;;;8.50;;
21675;SDS011;10999;51.332;9.458;2022-10-31T11:15:57;19.60;;;7.75;;
21675;SDS011;10999;51.332;9.458;2022-10-31T11:18:31;16.30;;;7.55;;
21675;SDS011;10999;51.332;9.458;2022-10-31T11:21:02;16.20;;;8.25;;
21675;SDS011;10999;51.332;9.458;2022-10-31T11:23:31;17.40;;;7.18;;
21675;SDS011;10999;51.332;9.458;2022-10-31T11:25:59;17.90;;;8.10;;
21675;SDS011;10999;51.332;9.458;2022-10-31T11:28:32;14.73;;;6.22;;
21675;SDS011;10999;51.332;9.458;2022-10-31T11:31:04;16.50;;;7.55;;
21675;SDS011;10999;51.332;9.458;2022-10-31T11:33:35;17.83;;;7.68;;
21675;SDS011;10999;51.332;9.458;2022-10-31T11:36:20;20.48;;;7.97;;
21675;SDS011;10999;51.332;9.458;2022-10-31T11:38:50;18.58;;;7.78;;
21675;SDS011;10999;51.332;9.458;2022-10-31T11:41:19;16.45;;;7.22;;
21675;SDS011;10999;51.332;9.458;2022-10-31T11:44:00;17.77;;;7.80;;
21675;SDS011;10999;51.332;9.458;2022-10-31T11:46:48;14.90;;;7.38;;
21675;SDS011;10999;51.332;9.458;2022-10-31T11:49:29;17.52;;;7.45;;
21675;SDS011;10999;51.332;9.458;2022-10-31T11:52:27;19.75;;;9.30;;
21675;SDS011;10999;51.332;9.458;2022-10-31T11:55:01;17.35;;;7.70;;
21675;SDS011;10999;51.332;9.458;2022-10-31T11:57:49;15.13;;;6.57;;
21675;SDS011;10999;51.332;9.458;2022-10-31T12:00:21;17.52;;;6.55;;
21675;SDS011;10999;51.332;9.458;2022-10-31T12:02:48;16.23;;;7.00;;
21675;SDS011;10999;51.332;9.458;2022-10-31T12:05:23;16.80;;;6.75;;
21675;SDS011;10999;51.332;9.458;2022-10-31T12:07:58;17.77;;;7.55;;
21675;SDS011;10999;51.332;9.458;2022-10-31T12:10:31;16.15;;;6.32;;
21675;SDS011;10999;51.332;9.458;2022-10-31T12:15:52;15.35;;;6.88;;
21675;SDS011;10999;51.332;9.458;2022-10-31T12:23:55;16.23;;;6.88;;
21675;SDS011;10999;51.332;9.458;2022-10-31T12:29:40;14.93;;;7.40;;
21675;SDS011;10999;51.332;9.458;2022-10-31T12:32:31;15.20;;;6.45;;
21675;SDS011;10999;51.332;9.458;2022-10-31T12:43:20;15.75;;;6.72;;
21675;SDS011;10999;51.332;9.458;2022-10-31T12:46:03;12.98;;;5.63;;
21675;SDS011;10999;51.332;9.458;2022-10-31T12:48:45;15.15;;;6.97;;
21675;SDS011;10999;51.332;9.458;2022-10-31T12:54:40;16.80;;;7.45;;
21675;SDS011;10999;51.332;9.458;2022-10-31T12:57:25;17.05;;;7.32;;
21675;SDS011;10999;51.332;9.458;2022-10-31T13:00:13;16.90;;;7.15;;
21675;SDS011;10999;51.332;9.458;2022-10-31T13:05:45;20.77;;;7.88;;
21675;SDS011;10999;51.332;9.458;2022-10-31T13:08:20;14.55;;;6.63;;
21675;SDS011;10999;51.332;9.458;2022-10-31T13:10:52;18.08;;;8.27;;
21675;SDS011;10999;51.332;9.458;2022-10-31T13:16:47;16.08;;;7.38;;
21675;SDS011;10999;51.332;9.458;2022-10-31T13:19:28;15.40;;;7.03;;
21675;SDS011;10999;51.332;9.458;2022-10-31T13:27:20;14.82;;;7.35;;
21675;SDS011;10999;51.332;9.458;2022-10-31T13:32:29;17.55;;;7.63;;
21675;SDS011;10999;51.332;9.458;2022-10-31T13:35:12;15.55;;;7.85;;
21675;SDS011;10999;51.332;9.458;2022-10-31T13:37:47;15.55;;;7.03;;
21675;SDS011;10999;51.332;9.458;2022-10-31T13:43:04;18.30;;;8.23;;
21675;SDS011;10999;51.332;9.458;2022-10-31T13:46:20;16.85;;;7.55;;
21675;SDS011;10999;51.332;9.458;2022-10-31T13:48:33;16.40;;;7.72;;
21675;SDS011;10999;51.332;9.458;2022-10-31T13:51:04;13.88;;;6.72;;
21675;SDS011;10999;51.332;9.458;2022-10-31T13:56:03;12.45;;;5.47;;
21675;SDS011;10999;51.332;9.458;2022-10-31T13:58:56;16.98;;;6.57;;
21675;SDS011;10999;51.332;9.458;2022-10-31T14:01:23;12.52;;;5.80;;
21675;SDS011;10999;51.332;9.458;2022-10-31T14:03:58;16.33;;;6.38;;
21675;SDS011;10999;51.332;9.458;2022-10-31T14:09:17;16.08;;;6.82;;
21675;SDS011;10999;51.332;9.458;2022-10-31T14:11:46;17.05;;;7.55;;
21675;SDS011;10999;51.332;9.458;2022-10-31T14:14:14;15.20;;;6.82;;
21675;SDS011;10999;51.332;9.458;2022-10-31T14:16:42;12.25;;;5.93;;
21675;SDS011;10999;51.332;9.458;2022-10-31T14:19:15;18.13;;;6.57;;
21675;SDS011;10999;51.332;9.458;2022-10-31T14:21:47;13.77;;;6.30;;
21675;SDS011;10999;51.332;9.458;2022-10-31T14:26:51;20.75;;;6.38;;
21675;SDS011;10999;51.332;9.458;2022-10-31T14:31:57;14.30;;;6.47;;
21675;SDS011;10999;51.332;9.458;2022-10-31T14:34:50;14.77;;;5.43;;
21675;SDS011;10999;51.332;9.458;2022-10-31T14:51:38;13.68;;;6.25;;
21675;SDS011;10999;51.332;9.458;2022-10-31T14:54:10;15.32;;;6.88;;
21675;SDS011;10999;51.332;9.458;2022-10-31T14:56:43;17.88;;;7.95;;
21675;SDS011;10999;51.332;9.458;2022-10-31T14:59:16;17.15;;;7.30;;
21675;SDS011;10999;51.332;9.458;2022-10-31T15:01:55;17.42;;;6.45;;
21675;SDS011;10999;51.332;9.458;2022-10-31T15:04:26;18.30;;;7.22;;
21675;SDS011;10999;51.332;9.458;2022-10-31T15:09:36;19.20;;;8.15;;
21675;SDS011;10999;51.332;9.458;2022-10-31T15:15:39;16.25;;;6.32;;
21675;SDS011;10999;51.332;9.458;2022-10-31T15:18:00;13.95;;;6.13;;
21675;SDS011;10999;51.332;9.458;2022-10-31T15:20:31;15.82;;;6.68;;
21675;SDS011;10999;51.332;9.458;2022-10-31T15:23:04;17.58;;;7.40;;
21675;SDS011;10999;51.332;9.458;2022-10-31T15:25:35;17.10;;;7.53;;
21675;SDS011;10999;51.332;9.458;2022-10-31T15:28:12;14.20;;;7.03;;
21675;SDS011;10999;51.332;9.458;2022-10-31T15:30:48;14.25;;;5.97;;
21675;SDS011;10999;51.332;9.458;2022-10-31T15:33:27;12.82;;;6.45;;
21675;SDS011;10999;51.332;9.458;2022-10-31T15:36:02;15.43;;;6.10;;
21675;SDS011;10999;51.332;9.458;2022-10-31T15:38:29;14.45;;;5.93;;
21675;SDS011;10999;51.332;9.458;2022-10-31T15:40:57;16.13;;;7.50;;
21675;SDS011;10999;51.332;9.458;2022-10-31T15:43:27;13.13;;;5.80;;
21675;SDS011;10999;51.332;9.458;2022-10-31T15:46:08;16.83;;;6.97;;
21675;SDS011;10999;51.332;9.458;2022-10-31T15:48:36;14.63;;;6.28;;
21675;SDS011;10999;51.332;9.458;2022-10-31T15:51:04;13.38;;;5.88;;
21675;SDS011;10999;51.332;9.458;2022-10-31T15:56:12;15.65;;;6.28;;
21675;SDS011;10999;51.332;9.458;2022-10-31T15:58:47;14.68;;;6.07;;
21675;SDS011;10999;51.332;9.458;2022-10-31T16:04:38;18.27;;;6.78;;
21675;SDS011;10999;51.332;9.458;2022-10-31T16:07:12;13.10;;;6.18;;
21675;SDS011;10999;51.332;9.458;2022-10-31T16:09:48;13.48;;;6.18;;
21675;SDS011;10999;51.332;9.458;2022-10-31T16:12:15;16.95;;;7.03;;
21675;SDS011;10999;51.332;9.458;2022-10-31T16:14:47;17.60;;;7.07;;
21675;SDS011;10999;51.332;9.458;2022-10-31T16:17:17;18.42;;;7.22;;
21675;SDS011;10999;51.332;9.458;2022-10-31T16:19:48;16.90;;;6.40;;
21675;SDS011;10999;51.332;9.458;2022-10-31T16:22:19;14.07;;;6.05;;
21675;SDS011;10999;51.332;9.458;2022-10-31T16:27:37;13.02;;;5.90;;
21675;SDS011;10999;51.332;9.458;2022-10-31T16:32:54;14.48;;;5.70;;
21675;SDS011;10999;51.332;9.458;2022-10-31T16:38:03;13.20;;;5.53;;
21675;SDS011;10999;51.332;9.458;2022-10-31T16:40:31;12.13;;;5.50;;
21675;SDS011;10999;51.332;9.458;2022-10-31T16:42:59;10.23;;;4.55;;
21675;SDS011;10999;51.332;9.458;2022-10-31T16:45:29;10.63;;;4.57;;
21675;SDS011;10999;51.332;9.458;2022-10-31T16:48:06;13.52;;;5.28;;
21675;SDS011;10999;51.332;9.458;2022-10-31T16:50:37;12.65;;;5.88;;
21675;SDS011;10999;51.332;9.458;2022-10-31T16:53:04;11.98;;;5.60;;
21675;SDS011;10999;51.332;9.458;2022-10-31T16:56:14;11.20;;;5.05;;
21675;SDS011;10999;51.332;9.458;2022-10-31T16:58:38;11.98;;;5.45;;
21675;SDS011;10999;51.332;9.458;2022-10-31T17:01:05;12.35;;;5.60;;
21675;SDS011;10999;51.332;9.458;2022-10-31T17:03:33;12.60;;;5.53;;
21675;SDS011;10999;51.332;9.458;2022-10-31T17:06:00;12.50;;;4.85;;
21675;SDS011;10999;51.332;9.458;2022-10-31T17:08:27;14.75;;;6.32;;
21675;SDS011;10999;51.332;9.458;2022-10-31T17:10:54;17.45;;;7.57;;
21675;SDS011;10999;51.332;9.458;2022-10-31T17:13:23;15.18;;;7.28;;
21675;SDS011;10999;51.332;9.458;2022-10-31T17:15:53;18.50;;;7.47;;
21675;SDS011;10999;51.332;9.458;2022-10-31T17:18:22;17.35;;;7.70;;
21675;SDS011;10999;51.332;9.458;2022-10-31T17:20:56;18.02;;;7.85;;
21675;SDS011;10999;51.332;9.458;2022-10-31T17:23:25;20.17;;;10.27;;
21675;SDS011;10999;51.332;9.458;2022-10-31T17:25:53;19.95;;;10.27;;
21675;SDS011;10999;51.332;9.458;2022-10-31T17:28:20;19.73;;;9.07;;
21675;SDS011;10999;51.332;9.458;2022-10-31T17:30:47;16.77;;;8.98;;